Flight Track Log - Related Links

Times and Time Zones

All times are in EST time to prevent confusion due to time zone crossing. See the N143DE flight status page for this flight to view local times or setup timezone preferences in your user account.

Time Position Orientation Groundspeed Altitude Reporting Facility
EST Latitude Longitude Course Direction KTS MPH feet Rate Location/Type
Sun 05:22:20 PM 30.5872 -91.1708 19° North 158 182 23,000  Level Houston Center
Sun 05:23:22 PM 30.6167 -91.1378 44° Northeast 158 182 5,100 -7,887 Descending Houston Center
Sun 05:24:24 PM 30.6428 -91.0942 55° Northeast 161 185 6,700 1,839 Climbing Houston Center
Sun 05:25:26 PM 30.6822 -91.0433 48° Northeast 168 193 8,900 1,887 Climbing Houston Center
Sun 05:26:28 PM 30.7181 -90.9989 47° Northeast 180 207 10,600 1,355 Climbing Houston Center
Sun 05:27:00 PM 30.7907 -90.7950 19° North  Level Estimated
Sun 05:27:30 PM 30.7553 -90.9517 47° Northeast 192 221 11,700  Level Houston Center
Sun 05:28:32 PM 30.7967 -90.8986 48° Northeast 214 246 12,700 968 Climbing Houston Center
Sun 05:29:34 PM 30.8392 -90.8472 46° Northeast 219 252 13,700 1,056 Climbing Houston Center
Sun 05:30:37 PM 30.8794 -90.7950 48° Northeast 216 249 14,900 1,296 Climbing Houston Center
Sun 05:31:39 PM 30.9264 -90.7367 47° Northeast 205 236 16,400 1,258 Climbing Houston Center
Sun 05:32:41 PM 30.9639 -90.6867 49° Northeast 202 232 17,500 919 Climbing Houston Center
Sun 05:33:43 PM 31.0031 -90.6369 47° Northeast 206 237 18,300 871 Climbing Houston Center
Sun 05:34:45 PM 31.0436 -90.5881 46° Northeast 207 238 19,300 919 Climbing Houston Center
Sun 05:35:47 PM 31.0819 -90.5383 48° Northeast 206 237 20,200 823 Climbing Houston Center
Sun 05:36:49 PM 31.1217 -90.4903 46° Northeast 204 235 21,000 823 Climbing Houston Center
Sun 05:37:51 PM 31.1683 -90.4292 48° Northeast 207 238 21,900 774 Climbing Houston Center
Sun 05:38:53 PM 31.2092 -90.3783 47° Northeast 213 245 22,600 532 Climbing Houston Center
Sun 05:39:55 PM 31.2500 -90.3269 47° Northeast 214 246 23,000 194 Climbing Houston Center
Sun 05:40:57 PM 31.2956 -90.2692 47° Northeast 236 272 23,000  Level Houston Center
Sun 05:41:59 PM 31.3428 -90.2067 48° Northeast 253 291 23,000  Level Houston Center
Sun 05:43:01 PM 31.3917 -90.1428 48° Northeast 260 299 23,000  Level Houston Center
Sun 05:44:03 PM 31.4408 -90.0778 48° Northeast 264 304 23,000  Level Houston Center
Sun 05:45:05 PM 31.4994 -89.9986 49° Northeast 266 306 23,000  Level Houston Center
Sun 05:46:08 PM 31.5472 -89.9333 49° Northeast 265 305 23,000  Level Houston Center
Sun 05:47:10 PM 31.5958 -89.8692 48° Northeast 263 303 23,000  Level Houston Center
Sun 05:48:12 PM 31.6442 -89.8033 49° Northeast 265 305 23,000  Level Houston Center
Sun 05:49:14 PM 31.6922 -89.7367 50° Northeast 266 306 23,000  Level Houston Center
Sun 05:50:16 PM 31.7417 -89.6731 48° Northeast 264 304 23,000  Level Houston Center
Sun 05:51:18 PM 31.8003 -89.5922 50° Northeast 269 310 23,000  Level Houston Center
Sun 05:52:20 PM 31.8506 -89.5219 50° Northeast 267 307 23,000  Level Houston Center
Sun 05:53:24 PM 31.8978 -89.4597 48° Northeast 270 311 23,000  Level Memphis Center
Sun 05:54:26 PM 31.9553 -89.3819 49° Northeast 267 307 23,000  Level Memphis Center
Sun 05:55:28 PM 32.0039 -89.3161 49° Northeast 267 307 23,000  Level Memphis Center
Sun 05:56:30 PM 32.0517 -89.2494 50° Northeast 268 308 23,000  Level Memphis Center
Sun 05:57:32 PM 32.1000 -89.1844 49° Northeast 267 307 23,000  Level Memphis Center
Sun 05:58:34 PM 32.1481 -89.1194 49° Northeast 266 306 23,000  Level Memphis Center
Sun 05:59:39 PM 32.2053 -89.0403 49° Northeast 265 305 23,000  Level Memphis Center
Sun 06:00:41 PM 32.2528 -88.9747 49° Northeast 266 306 23,000  Level Memphis Center
Sun 06:01:43 PM 32.3022 -88.9086 48° Northeast 268 308 23,000  Level Memphis Center
Sun 06:02:45 PM 32.3497 -88.8417 50° Northeast 268 308 23,000  Level Memphis Center
Sun 06:03:47 PM 32.4067 -88.7617 50° Northeast 267 307 23,000  Level Memphis Center
Sun 06:04:49 PM 32.4547 -88.6933 50° Northeast 270 311 23,000  Level Memphis Center
Sun 06:05:50 PM 32.5022 -88.6250 50° Northeast 270 311 23,000  Level Memphis Center
Sun 06:06:52 PM 32.5500 -88.5581 50° Northeast 270 311 23,000  Level Memphis Center
Sun 06:07:55 PM 32.5956 -88.4906 51° Northeast 268 308 23,000  Level Memphis Center
Sun 06:08:57 PM 32.6500 -88.4100 51° Northeast 265 305 23,000  Level Memphis Center
Sun 06:09:58 PM 32.6975 -88.3428 50° Northeast 265 305 23,000  Level Memphis Center
Sun 06:11:00 PM 32.7433 -88.2733 52° Northeast 268 308 23,000 -629 Level Memphis Center
Sun 06:12:02 PM 32.7931 -88.2022 50° Northeast 277 319 21,700 -1,113 Descending Memphis Center
Sun 06:13:04 PM 32.8472 -88.1250 50° Northeast 299 344 20,700 -919 Descending Memphis Center
Sun 06:14:06 PM 32.8989 -88.0519 50° Northeast 294 338 19,800 -1,161 Descending Memphis Center
Sun 06:15:08 PM 32.9592 -87.9611 52° Northeast 294 338 18,300 -1,161 Descending Memphis Center
Sun 06:16:10 PM 33.0089 -87.8878 51° Northeast 296 341 17,400 -968 Descending Memphis Center
Sun 06:17:12 PM 33.0611 -87.8144 50° Northeast 293 337 16,300 -1,065 Descending Memphis Center
Sun 06:18:14 PM 33.1103 -87.7383 52° Northeast 290 334 15,200 -1,171 Descending Memphis Center
Sun 06:19:15 PM 33.1689 -87.6522 51° Northeast 283 326 13,900 -1,101 Descending Memphis Center
Sun 06:20:03 PM 33.2067 -87.5939 52° Northeast 288 331 13,200 -857 Descending Atlanta Center
Sun 06:20:46 PM 33.2350 -87.5456 55° Northeast 275 316 12,600 -1,000 Descending Atlanta Center
Sun 06:21:03 PM 33.2506 -87.5189 55° Northeast 278 320 12,200 -1,254 Descending Atlanta Center
Sun 06:21:53 PM 33.2856 -87.4581 55° Northeast 270 311 11,200 -1,200 Descending Atlanta Center
Sun 06:22:03 PM 33.2942 -87.4461 49° Northeast 278 320 11,000 -1,714 Descending Atlanta Center
Sun 06:23:03 PM 33.3378 -87.3781 52° Northeast 267 307 9,200 -1,771 Descending Atlanta Center
Sun 06:23:48 PM 33.3706 -87.3247 54° Northeast 265 305 7,900 -1,600 Descending Atlanta Center
Sun 06:24:03 PM 33.3814 -87.3075 53° Northeast 262 302 7,600 -1,440 Descending Atlanta Center
Sun 06:25:03 PM 33.4250 -87.2372 53° Northeast 262 302 6,100 -1,358 Descending Atlanta Center
Sun 06:25:49 PM 33.4556 -87.1908 52° Northeast 248 285 5,200 -1,100 Descending Atlanta Center
Sun 06:26:03 PM 33.4664 -87.1739 53° Northeast 257 296 5,000 -179 Descending Atlanta Center
Sun 06:26:56 PM 33.4947 -87.1250 55° Northeast 228 262 5,000  Level Atlanta Center
Sun 06:27:44 PM 33.5250 -87.0764 53° Northeast 201 231 5,000  Level Atlanta Center
Sun 06:28:45 PM 33.5578 -87.0203 55° Northeast 199 229 5,000 -50 Level Atlanta Center
Sun 06:29:45 PM 33.5903 -86.9664 54° Northeast 204 235 4,900 -472 Descending Atlanta Center
Sun 06:30:52 PM 33.6253 -86.9078 54° Northeast 204 235 4,000 -470 Descending Atlanta Center
Sun 06:31:40 PM 33.6556 -86.8639 50° Northeast 189 217 4,000 -330 Level Atlanta Center
Sun 06:32:41 PM 33.6650 -86.8042 79° East 181 208 3,400 -414 Descending Atlanta Center
Sun 06:33:36 PM 33.6747 -86.7522 77° East 165 190 3,200 -157 Descending Atlanta Center
Sun 06:34:36 PM 33.6756 -86.7047 89° East 136 157 3,100 -50 Descending Atlanta Center
Sun 06:35:37 PM 33.6578 -86.6642 118° Southeast 139 160 3,100 -261 Level Atlanta Center
Sun 06:36:31 PM 33.6225 -86.6583 172° South 134 154 2,600 -595 Descending Atlanta Center
Sun 06:37:38 PM 33.6031 -86.6900 234° Southwest 115 132 1,900 -627 Descending Atlanta Center
Sun 06:38:45 PM 33.5814 -86.7242 233° Southwest 117 135 1,200 -627 Descending Atlanta Center

Login

Don't have an account? Register now (free) for customized features, flight alerts, and more!